Time;durP1;ratioP1;P1;durP2;ratioP2;P2;SDS_P1;SDS_P2;PMS_P1;PMS_P2;Temp;Humidity;BMP_temperature;BMP_pressure;BME280_temperature;BME280_humidity;BME280_pressure;Samples;Min_cycle;Max_cycle;Signal;HPM_P1;HPM_P2
2022/07/09 00:02:08;;;;;;;;;;;17.70;99.90;;;;;;5015915;28;19920;-83
2022/07/09 00:04:34;;;;;;;;;;;17.60;99.90;;;;;;5015253;28;20896;-78
2022/07/09 00:07:00;;;;;;;;;;;17.60;99.90;;;;;;5007328;28;20461;-80
2022/07/09 00:09:26;;;;;;;;;;;17.60;99.90;;;;;;5014962;28;19923;-78
2022/07/09 00:11:52;;;;;;;;;;;17.60;99.90;;;;;;5019134;28;20296;-78
2022/07/09 00:14:19;;;;;;;;;;;17.60;99.90;;;;;;4998047;28;19917;-77
2022/07/09 00:16:45;;;;;;;;;;;17.50;99.90;;;;;;5010666;28;19921;-78
2022/07/09 00:19:11;;;;;;;;;;;17.50;99.90;;;;;;4999813;28;20554;-78
2022/07/09 00:21:38;;;;;;;;;;;17.50;99.90;;;;;;5009595;28;19917;-77
2022/07/09 00:24:05;;;;;;;;;;;17.40;99.90;;;;;;5013199;28;19916;-77
2022/07/09 00:26:31;;;;;;;;;;;17.40;99.90;;;;;;5015824;28;19921;-77
2022/07/09 00:28:57;;;;;;;;;;;17.40;99.90;;;;;;4997026;28;20928;-78
2022/07/09 00:31:23;;;;;;;;;;;17.40;99.90;;;;;;5007799;28;19920;-78
2022/07/09 00:33:49;;;;;;;;;;;17.40;99.90;;;;;;4995630;28;19927;-78
2022/07/09 00:36:16;;;;;;;;;;;17.30;99.90;;;;;;5011456;28;20295;-78
2022/07/09 00:38:42;;;;;;;;;;;17.30;99.90;;;;;;5013071;28;19917;-78
2022/07/09 00:41:08;;;;;;;;;;;17.30;99.90;;;;;;5010058;28;20261;-78
2022/07/09 00:43:34;;;;;;;;;;;17.20;99.90;;;;;;4994349;28;20260;-77
2022/07/09 00:46:00;;;;;;;;;;;17.20;99.90;;;;;;5015412;28;19928;-77
2022/07/09 00:48:27;;;;;;;;;;;17.20;99.90;;;;;;5015493;28;19925;-77
2022/07/09 00:50:53;;;;;;;;;;;17.20;99.90;;;;;;5009089;28;19927;-77
2022/07/09 00:53:21;;;;;;;;;;;17.10;99.90;;;;;;5002927;28;20375;-77
2022/07/09 00:55:48;;;;;;;;;;;17.10;99.90;;;;;;5015987;28;19913;-77
2022/07/09 00:58:17;;;;;;;;;;;17.10;99.90;;;;;;5010889;28;20319;-78
2022/07/09 01:00:45;;;;;;;;;;;17.00;99.90;;;;;;5006815;28;19916;-79
2022/07/09 01:03:14;;;;;;;;;;;17.00;99.90;;;;;;5013720;28;20960;-76
2022/07/09 01:05:49;;;;;;;;;;;17.00;99.90;;;;;;4982932;28;20827;-76
2022/07/09 01:08:15;;;;;;;;;;;17.00;99.90;;;;;;5014695;28;19916;-76
2022/07/09 01:10:42;;;;;;;;;;;17.00;99.90;;;;;;4997126;28;19916;-76
2022/07/09 01:13:08;;;;;;;;;;;16.90;99.90;;;;;;5014286;28;19916;-75
2022/07/09 01:15:34;;;;;;;;;;;16.90;99.90;;;;;;5012560;28;19919;-75
2022/07/09 01:18:00;;;;;;;;;;;16.90;99.90;;;;;;5013263;28;20283;-77
2022/07/09 01:20:28;;;;;;;;;;;16.80;99.90;;;;;;5013441;28;20360;-76
2022/07/09 01:22:55;;;;;;;;;;;16.80;99.90;;;;;;5013403;28;20303;-76
2022/07/09 01:25:36;;;;;;;;;;;16.80;99.90;;;;;;4996762;28;19916;-76
2022/07/09 01:28:07;;;;;;;;;;;16.80;99.90;;;;;;4996220;28;19924;-76
2022/07/09 01:30:34;;;;;;;;;;;16.70;99.90;;;;;;4993631;28;19905;-76
2022/07/09 01:33:00;;;;;;;;;;;16.70;99.90;;;;;;5014212;28;19916;-76
2022/07/09 01:35:27;;;;;;;;;;;16.70;99.90;;;;;;5013794;28;19931;-76
2022/07/09 01:37:56;;;;;;;;;;;16.70;99.90;;;;;;5014306;28;20387;-77
2022/07/09 01:40:23;;;;;;;;;;;16.60;99.90;;;;;;5013792;28;19908;-76
2022/07/09 01:42:49;;;;;;;;;;;16.60;99.90;;;;;;5001957;28;19917;-76
2022/07/09 01:45:16;;;;;;;;;;;16.60;99.90;;;;;;5017753;28;19916;-78
2022/07/09 01:47:42;;;;;;;;;;;16.60;99.90;;;;;;5016274;28;19924;-75
2022/07/09 01:50:09;;;;;;;;;;;16.50;99.90;;;;;;5013583;28;19929;-76
2022/07/09 01:52:35;;;;;;;;;;;16.60;99.90;;;;;;4990390;28;19921;-76
2022/07/09 01:55:02;;;;;;;;;;;16.50;99.90;;;;;;5018685;28;19913;-77
2022/07/09 01:57:28;;;;;;;;;;;16.50;99.90;;;;;;5017257;28;19913;-77
2022/07/09 01:59:54;;;;;;;;;;;16.50;99.90;;;;;;5016756;28;19913;-76
2022/07/09 02:02:21;;;;;;;;;;;16.40;99.90;;;;;;4985106;28;19917;-76
2022/07/09 02:04:47;;;;;;;;;;;16.40;99.90;;;;;;5015674;28;20400;-75
2022/07/09 02:07:14;;;;;;;;;;;16.40;99.90;;;;;;5017127;28;20398;-75
2022/07/09 02:09:40;;;;;;;;;;;16.40;99.90;;;;;;5017073;28;19913;-79
2022/07/09 02:12:06;;;;;;;;;;;16.30;99.90;;;;;;5015415;28;19940;-79
2022/07/09 02:14:33;;;;;;;;;;;16.20;99.90;;;;;;5018037;28;19908;-79
2022/07/09 02:16:59;;;;;;;;;;;16.20;99.90;;;;;;5022002;28;19916;-79
2022/07/09 02:19:25;;;;;;;;;;;16.10;99.90;;;;;;5019060;28;19943;-79
2022/07/09 02:21:51;;;;;;;;;;;16.10;99.90;;;;;;5018128;28;19920;-79
2022/07/09 02:24:17;;;;;;;;;;;16.10;99.90;;;;;;5017160;28;19920;-78
2022/07/09 02:26:43;;;;;;;;;;;16.10;99.90;;;;;;5035909;28;20292;-79
2022/07/09 02:29:10;;;;;;;;;;;16.10;99.90;;;;;;5017955;28;19944;-79
2022/07/09 02:31:36;;;;;;;;;;;16.10;99.90;;;;;;4984380;28;20309;-79
2022/07/09 02:34:02;;;;;;;;;;;16.10;99.90;;;;;;5017718;28;20387;-80
2022/07/09 02:36:28;;;;;;;;;;;16.10;99.90;;;;;;5020247;28;20407;-79
2022/07/09 02:38:54;;;;;;;;;;;16.10;99.90;;;;;;5019770;28;20281;-79
2022/07/09 02:41:20;;;;;;;;;;;16.00;99.90;;;;;;4985830;28;19913;-78
2022/07/09 02:43:47;;;;;;;;;;;16.00;99.90;;;;;;5020306;28;19919;-78
2022/07/09 02:46:15;;;;;;;;;;;16.00;99.90;;;;;;5018225;28;19923;-79
2022/07/09 02:48:46;;;;;;;;;;;16.00;99.90;;;;;;5008419;28;20649;-79
2022/07/09 02:51:13;;;;;;;;;;;16.00;99.90;;;;;;5014696;28;19920;-80
2022/07/09 02:53:39;;;;;;;;;;;16.00;99.90;;;;;;5003655;28;19924;-78
2022/07/09 02:56:05;;;;;;;;;;;16.00;99.90;;;;;;4991966;28;19924;-78
2022/07/09 02:58:31;;;;;;;;;;;16.00;99.90;;;;;;5018849;28;19921;-78
2022/07/09 03:00:58;;;;;;;;;;;16.00;99.90;;;;;;5014690;28;21167;-79
2022/07/09 03:03:27;;;;;;;;;;;16.00;99.90;;;;;;5016611;28;19920;-79
2022/07/09 03:05:53;;;;;;;;;;;16.00;99.90;;;;;;5016511;28;19924;-80
2022/07/09 03:08:21;;;;;;;;;;;16.00;99.90;;;;;;5017059;28;19909;-78
2022/07/09 03:10:49;;;;;;;;;;;16.00;99.90;;;;;;5016845;28;19909;-78
2022/07/09 03:13:15;;;;;;;;;;;16.00;99.90;;;;;;5016483;28;19923;-78
2022/07/09 03:15:41;;;;;;;;;;;16.10;99.90;;;;;;5017301;28;19916;-78
2022/07/09 03:18:08;;;;;;;;;;;16.10;99.90;;;;;;5016809;28;19916;-76
2022/07/09 03:20:35;;;;;;;;;;;16.20;99.90;;;;;;5002948;28;20288;-78
2022/07/09 03:23:02;;;;;;;;;;;16.30;99.90;;;;;;5004742;28;19921;-78
2022/07/09 03:25:28;;;;;;;;;;;16.30;99.90;;;;;;5018339;28;19924;-76
2022/07/09 03:27:57;;;;;;;;;;;16.40;99.90;;;;;;5017013;28;19939;-78
2022/07/09 03:30:23;;;;;;;;;;;16.40;99.90;;;;;;5015306;28;19998;-78
2022/07/09 03:32:50;;;;;;;;;;;16.50;99.90;;;;;;5001954;28;19916;-78
2022/07/09 03:35:16;;;;;;;;;;;16.50;99.90;;;;;;5002900;28;19913;-78
2022/07/09 03:37:42;;;;;;;;;;;16.50;99.90;;;;;;5018500;28;19909;-78
2022/07/09 03:40:09;;;;;;;;;;;16.60;99.90;;;;;;5014951;28;19917;-78
2022/07/09 03:42:35;;;;;;;;;;;16.60;99.90;;;;;;5019460;28;19920;-78
2022/07/09 03:45:01;;;;;;;;;;;16.60;99.90;;;;;;5005211;28;20280;-78
2022/07/09 03:47:27;;;;;;;;;;;16.60;99.90;;;;;;5019297;28;19912;-78
2022/07/09 03:49:53;;;;;;;;;;;16.60;99.90;;;;;;5016312;28;19929;-78
2022/07/09 03:52:20;;;;;;;;;;;16.70;99.90;;;;;;5020640;28;20256;-78
2022/07/09 03:54:46;;;;;;;;;;;16.70;99.90;;;;;;5019461;28;19904;-78
2022/07/09 03:57:13;;;;;;;;;;;16.80;99.90;;;;;;5018764;28;19915;-78
2022/07/09 03:59:39;;;;;;;;;;;16.90;99.90;;;;;;5019832;28;20508;-78
2022/07/09 04:02:05;;;;;;;;;;;16.90;99.90;;;;;;5023009;28;19912;-78
2022/07/09 04:04:31;;;;;;;;;;;16.90;99.90;;;;;;5017911;28;19912;-78
2022/07/09 04:06:57;;;;;;;;;;;16.90;99.90;;;;;;5019145;28;19912;-78
2022/07/09 04:09:23;;;;;;;;;;;17.00;99.90;;;;;;5001586;28;20264;-78
2022/07/09 04:11:50;;;;;;;;;;;17.00;99.90;;;;;;5002975;28;19921;-78
2022/07/09 04:14:16;;;;;;;;;;;17.00;99.90;;;;;;5019238;28;19917;-78
2022/07/09 04:16:42;;;;;;;;;;;17.00;99.90;;;;;;5018915;28;19924;-78
2022/07/09 04:19:08;;;;;;;;;;;17.00;99.90;;;;;;5002911;28;19921;-78
2022/07/09 04:21:34;;;;;;;;;;;17.10;99.90;;;;;;5016795;28;20295;-78
2022/07/09 04:24:00;;;;;;;;;;;17.10;99.90;;;;;;5017978;28;20295;-78
2022/07/09 04:26:26;;;;;;;;;;;17.20;99.90;;;;;;5019005;28;19924;-78
2022/07/09 04:28:53;;;;;;;;;;;17.20;99.90;;;;;;5007559;28;19908;-78
2022/07/09 04:31:21;;;;;;;;;;;17.20;99.90;;;;;;5000120;28;19920;-78
2022/07/09 04:33:47;;;;;;;;;;;17.30;99.90;;;;;;5020757;28;19909;-77
2022/07/09 04:36:13;;;;;;;;;;;17.30;99.90;;;;;;5020564;28;19917;-77
2022/07/09 04:38:39;;;;;;;;;;;17.40;99.90;;;;;;5021430;28;19916;-77
2022/07/09 04:41:06;;;;;;;;;;;17.40;99.90;;;;;;5016467;28;19915;-76
2022/07/09 04:43:32;;;;;;;;;;;17.40;99.90;;;;;;5017711;28;19913;-76
2022/07/09 04:45:59;;;;;;;;;;;17.40;99.90;;;;;;5021386;28;19920;-76
2022/07/09 04:48:25;;;;;;;;;;;17.40;99.90;;;;;;5019968;28;19917;-76
2022/07/09 04:50:51;;;;;;;;;;;17.40;99.90;;;;;;4999282;28;19920;-77
2022/07/09 04:53:17;;;;;;;;;;;17.40;99.90;;;;;;5018301;28;19913;-76
2022/07/09 04:55:44;;;;;;;;;;;17.30;99.90;;;;;;5019650;28;19921;-76
2022/07/09 04:58:10;;;;;;;;;;;17.30;99.90;;;;;;5000786;28;19908;-76
2022/07/09 05:00:36;;;;;;;;;;;17.30;99.90;;;;;;4995162;28;20259;-75
2022/07/09 05:03:05;;;;;;;;;;;17.30;99.90;;;;;;5031102;28;20351;-76
2022/07/09 05:05:31;;;;;;;;;;;17.30;99.90;;;;;;5017767;28;20364;-75
2022/07/09 05:07:58;;;;;;;;;;;17.30;99.90;;;;;;5020421;28;19905;-75
2022/07/09 05:10:24;;;;;;;;;;;17.40;99.90;;;;;;5014808;28;20268;-75
2022/07/09 05:12:50;;;;;;;;;;;17.50;99.90;;;;;;5019861;28;19908;-75
2022/07/09 05:15:16;;;;;;;;;;;17.70;99.90;;;;;;5019337;28;20394;-76
2022/07/09 05:17:43;;;;;;;;;;;17.80;99.90;;;;;;5015382;28;20394;-76
2022/07/09 05:20:10;;;;;;;;;;;18.00;99.90;;;;;;5013087;28;19905;-75
2022/07/09 05:22:37;;;;;;;;;;;18.10;99.90;;;;;;5019828;28;20263;-75
2022/07/09 05:25:04;;;;;;;;;;;18.20;99.90;;;;;;5017860;28;20694;-78
2022/07/09 05:27:31;;;;;;;;;;;18.30;99.90;;;;;;5018872;28;20347;-76
2022/07/09 05:29:58;;;;;;;;;;;18.40;99.90;;;;;;5016265;28;19928;-76
2022/07/09 05:32:24;;;;;;;;;;;18.50;99.90;;;;;;5020774;28;21069;-76
2022/07/09 05:34:50;;;;;;;;;;;18.60;99.90;;;;;;5017901;28;19916;-76
2022/07/09 05:37:16;;;;;;;;;;;18.70;99.90;;;;;;5021499;28;19917;-76
2022/07/09 05:39:43;;;;;;;;;;;18.70;99.90;;;;;;5017175;28;20364;-76
2022/07/09 05:42:10;;;;;;;;;;;18.80;99.90;;;;;;5035930;28;20284;-76
2022/07/09 05:44:36;;;;;;;;;;;18.90;99.90;;;;;;5020025;28;19920;-76
2022/07/09 05:47:02;;;;;;;;;;;19.10;99.90;;;;;;5020615;28;19916;-76
2022/07/09 05:49:29;;;;;;;;;;;19.20;99.90;;;;;;5012885;28;19924;-76
2022/07/09 05:51:56;;;;;;;;;;;19.30;99.90;;;;;;5018040;28;20249;-75
2022/07/09 05:54:22;;;;;;;;;;;19.40;99.90;;;;;;5017130;28;19917;-75
2022/07/09 05:56:49;;;;;;;;;;;19.50;99.90;;;;;;5019668;28;19924;-76
2022/07/09 05:59:15;;;;;;;;;;;19.70;99.90;;;;;;5001521;28;20494;-76
2022/07/09 06:01:42;;;;;;;;;;;20.00;99.90;;;;;;5015431;28;20315;-76
2022/07/09 06:04:09;;;;;;;;;;;20.10;99.90;;;;;;5018900;28;19911;-75
2022/07/09 06:06:35;;;;;;;;;;;20.30;99.90;;;;;;5017431;28;19917;-75
2022/07/09 06:09:01;;;;;;;;;;;20.50;99.90;;;;;;5018548;28;20348;-76
2022/07/09 06:11:28;;;;;;;;;;;20.50;99.90;;;;;;5015444;28;19912;-76
2022/07/09 06:13:54;;;;;;;;;;;20.70;99.90;;;;;;4999749;28;19916;-76
2022/07/09 06:16:20;;;;;;;;;;;20.70;99.90;;;;;;5000033;28;20303;-76
2022/07/09 06:18:46;;;;;;;;;;;20.80;99.90;;;;;;5020129;28;19935;-76
2022/07/09 06:21:12;;;;;;;;;;;20.70;99.90;;;;;;4980753;28;19921;-76
2022/07/09 06:23:38;;;;;;;;;;;20.70;99.90;;;;;;4999625;28;19917;-76
2022/07/09 06:26:05;;;;;;;;;;;20.70;99.90;;;;;;5018167;28;19917;-75
2022/07/09 06:28:31;;;;;;;;;;;20.80;99.90;;;;;;5021095;28;19916;-76
2022/07/09 06:30:57;;;;;;;;;;;21.00;99.90;;;;;;5017544;28;20383;-75
2022/07/09 06:33:23;;;;;;;;;;;21.10;99.90;;;;;;5020317;28;19917;-74
2022/07/09 06:35:49;;;;;;;;;;;21.20;99.90;;;;;;5020744;28;19916;-75
2022/07/09 06:38:15;;;;;;;;;;;21.30;99.90;;;;;;5023964;28;20290;-75
2022/07/09 06:40:42;;;;;;;;;;;21.50;99.90;;;;;;5015286;28;19912;-75
2022/07/09 06:43:09;;;;;;;;;;;21.80;99.90;;;;;;5005752;28;19916;-75
2022/07/09 06:45:43;;;;;;;;;;;22.00;99.90;;;;;;5010551;28;20367;-75
2022/07/09 06:48:11;;;;;;;;;;;22.20;99.90;;;;;;5022735;28;20395;-75
2022/07/09 06:50:38;;;;;;;;;;;22.20;99.90;;;;;;4998861;28;19905;-75
2022/07/09 06:53:04;;;;;;;;;;;22.20;99.90;;;;;;5022394;28;20376;-75
2022/07/09 06:55:31;;;;;;;;;;;22.20;99.90;;;;;;5022555;28;19916;-75
2022/07/09 06:57:57;;;;;;;;;;;22.10;99.90;;;;;;5020378;28;19917;-75
2022/07/09 07:00:23;;;;;;;;;;;22.10;99.90;;;;;;4999557;28;19920;-74
2022/07/09 07:02:50;;;;;;;;;;;22.00;99.90;;;;;;5019634;28;20008;-74
2022/07/09 07:05:16;;;;;;;;;;;22.00;99.90;;;;;;5021144;28;19913;-75
2022/07/09 07:07:43;;;;;;;;;;;21.90;99.90;;;;;;5021993;28;20368;-75
2022/07/09 07:10:09;;;;;;;;;;;21.90;99.90;;;;;;4999391;28;20368;-75
2022/07/09 07:12:35;;;;;;;;;;;22.00;99.90;;;;;;5023484;28;20403;-75
2022/07/09 07:15:02;;;;;;;;;;;22.00;99.90;;;;;;5019094;28;19917;-75
2022/07/09 07:17:28;;;;;;;;;;;22.10;99.90;;;;;;5009213;28;19928;-75
2022/07/09 07:19:54;;;;;;;;;;;22.20;99.90;;;;;;5017776;28;20356;-75
2022/07/09 07:22:21;;;;;;;;;;;22.40;99.90;;;;;;5021137;28;19909;-75
2022/07/09 07:24:47;;;;;;;;;;;22.80;99.90;;;;;;5020075;28;19916;-75
2022/07/09 07:27:13;;;;;;;;;;;23.00;99.90;;;;;;5020211;28;19916;-75
2022/07/09 07:29:39;;;;;;;;;;;23.20;99.90;;;;;;5015374;28;19913;-74
2022/07/09 07:32:06;;;;;;;;;;;23.30;99.90;;;;;;5022147;28;19916;-75
2022/07/09 07:34:32;;;;;;;;;;;23.50;99.90;;;;;;5018855;28;19936;-75
2022/07/09 07:36:58;;;;;;;;;;;23.80;99.90;;;;;;5036674;28;20426;-75
2022/07/09 07:39:26;;;;;;;;;;;24.00;99.90;;;;;;5019479;28;19913;-75
2022/07/09 07:41:52;;;;;;;;;;;24.00;99.90;;;;;;5019793;28;19917;-75
2022/07/09 07:44:19;;;;;;;;;;;24.00;99.90;;;;;;5003311;28;20315;-75
2022/07/09 07:46:45;;;;;;;;;;;24.00;99.90;;;;;;5023387;28;19909;-75
2022/07/09 07:49:11;;;;;;;;;;;24.10;99.90;;;;;;5019481;28;20368;-75
2022/07/09 07:51:38;;;;;;;;;;;24.20;99.90;;;;;;5001825;28;19916;-75
2022/07/09 07:54:04;;;;;;;;;;;24.30;99.90;;;;;;5019844;28;21319;-75
2022/07/09 07:56:32;;;;;;;;;;;24.40;99.90;;;;;;5022677;28;20483;-75
2022/07/09 07:58:58;;;;;;;;;;;24.60;99.90;;;;;;4989255;28;19916;-75
2022/07/09 08:01:24;;;;;;;;;;;24.80;99.90;;;;;;5017587;28;19916;-74
2022/07/09 08:03:51;;;;;;;;;;;24.90;99.90;;;;;;5021923;28;19919;-76
2022/07/09 08:06:17;;;;;;;;;;;25.00;99.90;;;;;;5006708;28;19917;-75
2022/07/09 08:08:43;;;;;;;;;;;25.10;99.90;;;;;;5002406;28;19917;-75
2022/07/09 08:11:10;;;;;;;;;;;25.30;99.90;;;;;;5016399;28;19927;-75
2022/07/09 08:13:40;;;;;;;;;;;25.20;99.90;;;;;;5018377;28;19917;-75
2022/07/09 08:16:06;;;;;;;;;;;25.20;99.90;;;;;;5003604;28;20295;-75
2022/07/09 08:18:32;;;;;;;;;;;25.30;99.90;;;;;;5020027;28;19913;-78
2022/07/09 08:20:58;;;;;;;;;;;25.40;99.90;;;;;;5014772;28;19932;-78
2022/07/09 08:23:25;;;;;;;;;;;25.50;99.90;;;;;;5016871;28;19921;-78
2022/07/09 08:25:51;;;;;;;;;;;25.60;99.90;;;;;;5020235;28;19920;-78
2022/07/09 08:28:17;;;;;;;;;;;25.70;99.80;;;;;;5021257;28;20288;-78
2022/07/09 08:30:43;;;;;;;;;;;25.80;99.60;;;;;;5002821;28;20090;-78
2022/07/09 08:33:09;;;;;;;;;;;25.80;99.60;;;;;;5022639;28;20369;-78
2022/07/09 08:35:36;;;;;;;;;;;25.70;99.20;;;;;;5024570;28;19912;-78
2022/07/09 08:38:05;;;;;;;;;;;25.70;98.90;;;;;;5023958;28;19917;-77
2022/07/09 08:40:31;;;;;;;;;;;25.80;99.00;;;;;;5017416;28;19919;-78
2022/07/09 08:43:00;;;;;;;;;;;25.90;98.70;;;;;;5020447;28;19917;-78
2022/07/09 08:45:29;;;;;;;;;;;26.00;98.50;;;;;;5023670;28;19917;-78
2022/07/09 08:47:55;;;;;;;;;;;26.10;98.30;;;;;;5009489;28;20363;-78
2022/07/09 08:50:22;;;;;;;;;;;26.40;98.00;;;;;;5021332;28;19928;-78
2022/07/09 08:52:49;;;;;;;;;;;26.50;97.30;;;;;;5023199;28;19909;-78
2022/07/09 08:55:16;;;;;;;;;;;26.50;97.30;;;;;;5007569;28;19912;-79
2022/07/09 08:57:42;;;;;;;;;;;26.30;97.20;;;;;;5026973;28;19939;-79
2022/07/09 09:00:08;;;;;;;;;;;26.10;97.30;;;;;;5017271;28;20288;-77
2022/07/09 09:02:35;;;;;;;;;;;26.00;97.30;;;;;;5025520;28;19909;-79
2022/07/09 09:05:05;;;;;;;;;;;25.80;97.20;;;;;;5023901;28;20387;-80
2022/07/09 09:07:34;;;;;;;;;;;25.80;97.20;;;;;;5024622;28;19916;-79
2022/07/09 09:10:01;;;;;;;;;;;25.70;97.10;;;;;;5022330;28;19930;-82
2022/07/09 09:12:29;;;;;;;;;;;25.60;97.30;;;;;;5027369;28;19912;-80
2022/07/09 09:14:56;;;;;;;;;;;25.40;97.10;;;;;;5020214;28;19912;-79
2022/07/09 09:17:22;;;;;;;;;;;25.40;97.20;;;;;;5033400;28;19920;-80
2022/07/09 09:19:49;;;;;;;;;;;25.40;97.30;;;;;;5021984;28;19917;-78
2022/07/09 09:22:15;;;;;;;;;;;25.40;97.30;;;;;;5031330;28;19920;-81
2022/07/09 09:24:42;;;;;;;;;;;25.50;97.10;;;;;;5021429;28;19905;-79
2022/07/09 09:27:09;;;;;;;;;;;25.60;97.10;;;;;;5011455;28;19921;-80
2022/07/09 09:29:39;;;;;;;;;;;25.80;97.00;;;;;;5011868;28;19917;-80
2022/07/09 09:32:12;;;;;;;;;;;25.90;96.90;;;;;;5025457;28;20360;-80
2022/07/09 09:34:41;;;;;;;;;;;25.90;96.80;;;;;;5009556;28;19924;-81
2022/07/09 09:37:08;;;;;;;;;;;25.80;96.70;;;;;;5040433;28;19924;-80
2022/07/09 09:39:35;;;;;;;;;;;25.70;96.90;;;;;;5020691;28;19917;-79
2022/07/09 09:42:02;;;;;;;;;;;25.50;97.00;;;;;;5025646;28;19919;-79
2022/07/09 09:44:31;;;;;;;;;;;25.40;97.00;;;;;;5023702;28;19920;-79
2022/07/09 09:46:57;;;;;;;;;;;25.40;97.10;;;;;;5022910;28;19917;-78
2022/07/09 09:49:25;;;;;;;;;;;25.30;96.90;;;;;;5026410;28;19929;-80
2022/07/09 09:52:10;;;;;;;;;;;25.30;97.00;;;;;;5007396;28;19916;-80
2022/07/09 09:54:38;;;;;;;;;;;25.30;97.10;;;;;;5027449;28;19909;-81
2022/07/09 09:57:13;;;;;;;;;;;25.60;96.90;;;;;;5005101;28;20391;-81
2022/07/09 09:59:41;;;;;;;;;;;25.70;96.70;;;;;;5019955;28;20273;-81
2022/07/09 10:02:11;;;;;;;;;;;25.80;96.50;;;;;;5023600;28;20273;-80
2022/07/09 10:04:39;;;;;;;;;;;25.80;96.30;;;;;;5023162;28;19991;-81
2022/07/09 10:07:06;;;;;;;;;;;25.60;96.40;;;;;;5030168;28;20330;-80
2022/07/09 10:09:32;;;;;;;;;;;25.50;96.70;;;;;;5008498;28;20525;-80
2022/07/09 10:11:58;;;;;;;;;;;25.40;96.80;;;;;;5030192;28;20291;-80
2022/07/09 10:14:28;;;;;;;;;;;25.20;96.90;;;;;;5007404;28;19916;-79
2022/07/09 10:16:54;;;;;;;;;;;25.10;96.90;;;;;;5025140;28;19920;-79
2022/07/09 10:19:24;;;;;;;;;;;25.10;97.10;;;;;;5024739;28;19917;-79
2022/07/09 10:21:54;;;;;;;;;;;25.10;97.10;;;;;;5010519;28;19913;-80
2022/07/09 10:24:24;;;;;;;;;;;25.00;96.70;;;;;;5025016;28;19904;-79
2022/07/09 10:26:50;;;;;;;;;;;24.80;96.60;;;;;;5024981;28;20384;-79
2022/07/09 10:29:17;;;;;;;;;;;24.60;96.60;;;;;;5025299;28;19912;-80
2022/07/09 10:31:43;;;;;;;;;;;24.60;96.50;;;;;;5023255;28;19943;-79
2022/07/09 10:34:15;;;;;;;;;;;24.60;96.40;;;;;;5009182;28;19923;-79
2022/07/09 10:36:55;;;;;;;;;;;24.70;96.30;;;;;;5022204;28;19921;-79
2022/07/09 10:39:21;;;;;;;;;;;24.80;96.00;;;;;;5021764;28;19913;-78
2022/07/09 10:41:57;;;;;;;;;;;25.00;95.60;;;;;;5022110;28;19919;-79
2022/07/09 10:44:42;;;;;;;;;;;25.20;95.20;;;;;;5024849;28;19920;-79
2022/07/09 10:47:11;;;;;;;;;;;25.50;95.10;;;;;;5024504;28;20382;-79
2022/07/09 10:49:38;;;;;;;;;;;25.80;94.90;;;;;;5021439;28;19963;-79
2022/07/09 10:52:05;;;;;;;;;;;26.10;94.20;;;;;;5025117;28;19916;-80
2022/07/09 10:54:31;;;;;;;;;;;26.30;93.60;;;;;;5024496;28;19909;-80
2022/07/09 10:56:58;;;;;;;;;;;26.70;93.50;;;;;;5024833;28;20360;-80
2022/07/09 10:59:24;;;;;;;;;;;27.10;93.00;;;;;;5006990;28;19920;-80
2022/07/09 11:01:51;;;;;;;;;;;27.20;92.40;;;;;;5014761;28;20283;-82
2022/07/09 11:04:28;;;;;;;;;;;27.10;91.70;;;;;;5014013;28;20364;-82
2022/07/09 11:06:54;;;;;;;;;;;27.20;91.60;;;;;;5019168;28;19944;-82
2022/07/09 11:09:21;;;;;;;;;;;27.50;90.90;;;;;;5016807;28;19916;-81
2022/07/09 11:11:47;;;;;;;;;;;27.80;90.80;;;;;;5014498;28;19923;-82
2022/07/09 11:14:13;;;;;;;;;;;27.80;90.10;;;;;;5017695;28;19923;-82
2022/07/09 11:16:40;;;;;;;;;;;27.70;90.30;;;;;;5014873;28;19925;-83
2022/07/09 11:19:15;;;;;;;;;;;27.60;90.10;;;;;;5018551;28;19916;-83
2022/07/09 11:21:42;;;;;;;;;;;27.70;89.40;;;;;;5014703;28;19919;-75
2022/07/09 11:24:15;;;;;;;;;;;27.90;88.70;;;;;;4999057;28;19920;-74
2022/07/09 11:26:42;;;;;;;;;;;28.30;87.30;;;;;;5021274;28;20008;-75
2022/07/09 11:29:09;;;;;;;;;;;28.60;85.80;;;;;;5024640;28;19904;-75
2022/07/09 11:31:37;;;;;;;;;;;28.30;84.50;;;;;;5015550;28;20340;-74
2022/07/09 11:34:12;;;;;;;;;;;28.10;84.50;;;;;;5013754;28;19916;-84
2022/07/09 11:36:39;;;;;;;;;;;28.40;84.10;;;;;;5015789;28;19925;-84
2022/07/09 11:39:06;;;;;;;;;;;28.90;82.80;;;;;;5018863;28;20284;-83
2022/07/09 11:41:42;;;;;;;;;;;29.20;81.50;;;;;;5013466;28;19920;-83
2022/07/09 11:44:09;;;;;;;;;;;29.70;80.80;;;;;;5018463;28;19917;-84
2022/07/09 11:46:37;;;;;;;;;;;29.90;77.80;;;;;;5018431;28;23887;-74
2022/07/09 11:49:13;;;;;;;;;;;30.00;77.00;;;;;;5017243;28;19925;-75
2022/07/09 11:51:39;;;;;;;;;;;30.50;76.20;;;;;;5015360;28;20812;-74
2022/07/09 11:54:08;;;;;;;;;;;30.70;74.80;;;;;;5017972;28;19917;-74
2022/07/09 11:56:45;;;;;;;;;;;30.30;73.70;;;;;;4989997;28;19912;-74
2022/07/09 11:59:11;;;;;;;;;;;29.90;73.50;;;;;;5032884;28;19963;-74
2022/07/09 12:01:38;;;;;;;;;;;30.20;73.10;;;;;;5011928;28;19920;-74
2022/07/09 12:04:17;;;;;;;;;;;30.70;70.80;;;;;;4999070;28;19912;-74
2022/07/09 12:06:47;;;;;;;;;;;31.10;69.60;;;;;;4999120;28;19909;-74
2022/07/09 12:09:13;;;;;;;;;;;31.50;68.10;;;;;;5015321;28;20383;-74
2022/07/09 12:11:39;;;;;;;;;;;31.60;66.80;;;;;;4994644;28;19909;-74
2022/07/09 12:15:20;;;;;;;2.25;0.30;;;30.60;66.00;;;;;;5035002;28;21050;-74
2022/07/09 12:17:54;;;;;;;1.45;0.30;;;30.40;66.40;;;;;;5031758;28;20028;-74
2022/07/09 12:20:22;;;;;;;0.98;0.30;;;30.80;66.00;;;;;;5006798;28;20029;-74
2022/07/09 12:22:49;;;;;;;1.30;0.30;;;31.40;64.80;;;;;;5016917;28;20020;-75
2022/07/09 12:25:16;;;;;;;1.42;0.57;;;31.60;63.40;;;;;;5032646;28;20020;-75
2022/07/09 12:27:43;;;;;;;1.83;0.30;;;31.40;64.30;;;;;;5024682;28;20025;-77
2022/07/09 12:30:10;;;;;;;1.15;0.30;;;31.70;62.40;;;;;;5026339;28;20016;-75
2022/07/09 12:32:37;;;;;;;0.90;0.30;;;32.30;61.10;;;;;;5024516;28;20475;-74
2022/07/09 12:35:04;;;;;;;1.02;0.40;;;32.40;59.60;;;;;;5021623;28;20028;-74
2022/07/09 12:37:30;;;;;;;1.02;0.30;;;31.80;59.80;;;;;;4978508;28;20502;-74
2022/07/09 12:39:56;;;;;;;0.88;0.20;;;31.50;61.10;;;;;;4985268;28;20029;-74
2022/07/09 12:42:23;;;;;;;0.88;0.38;;;32.00;60.10;;;;;;4980803;28;20045;-75
2022/07/09 12:44:52;;;;;;;1.30;0.30;;;32.50;59.40;;;;;;5014395;28;20028;-75
2022/07/09 12:47:19;;;;;;;1.15;0.30;;;32.40;58.80;;;;;;5011963;28;20045;-75
2022/07/09 12:49:45;;;;;;;0.88;0.30;;;31.40;60.00;;;;;;5004862;28;20037;-74
2022/07/09 12:52:11;;;;;;;1.40;0.30;;;31.00;60.40;;;;;;5009747;28;20025;-74
2022/07/09 12:54:38;;;;;;;2.92;0.32;;;31.30;60.40;;;;;;4993957;28;20364;-84
2022/07/09 12:57:05;;;;;;;1.80;0.30;;;31.50;59.80;;;;;;4998893;28;20041;-85
2022/07/09 12:59:32;;;;;;;1.50;0.50;;;31.50;59.20;;;;;;5008550;28;20610;-85
2022/07/09 13:01:58;;;;;;;2.20;0.55;;;31.70;59.30;;;;;;5013414;28;20025;-84
2022/07/09 13:04:25;;;;;;;2.00;0.30;;;31.80;57.50;;;;;;4997504;28;20400;-83
2022/07/09 13:06:52;;;;;;;1.35;0.40;;;32.10;57.00;;;;;;5017511;28;20037;-85
2022/07/09 13:09:19;;;;;;;2.05;0.40;;;31.90;57.40;;;;;;5013689;28;20056;-84
2022/07/09 13:11:45;;;;;;;1.40;0.30;;;31.30;58.30;;;;;;5012438;28;20037;-84
2022/07/09 13:14:12;;;;;;;1.27;0.38;;;31.20;58.40;;;;;;4979878;28;20056;-83
2022/07/09 13:16:39;;;;;;;3.25;0.40;;;31.60;58.00;;;;;;5009488;28;20036;-84
2022/07/09 13:19:05;;;;;;;1.48;0.40;;;31.60;56.00;;;;;;5019852;28;20039;-83
2022/07/09 13:21:32;;;;;;;1.83;0.68;;;31.40;56.00;;;;;;4999733;28;20029;-84
2022/07/09 13:23:58;;;;;;;1.38;0.40;;;31.70;55.20;;;;;;5018454;28;20055;-83
2022/07/09 13:26:27;;;;;;;2.30;1.00;;;32.40;54.70;;;;;;5006380;28;20037;-84
2022/07/09 13:28:53;;;;;;;2.13;0.57;;;33.50;54.00;;;;;;5019811;28;20064;-84
2022/07/09 13:31:21;;;;;;;2.60;0.50;;;34.40;52.50;;;;;;5003482;28;20049;-85
2022/07/09 13:33:48;;;;;;;2.03;0.40;;;35.20;52.00;;;;;;5004770;28;20037;-83
2022/07/09 13:36:15;;;;;;;2.78;0.38;;;35.20;50.60;;;;;;4990936;28;20020;-84
2022/07/09 13:38:41;;;;;;;3.85;0.38;;;34.50;50.50;;;;;;5008589;28;20017;-84
2022/07/09 13:41:07;;;;;;;1.55;0.40;;;33.40;51.30;;;;;;5003678;28;20034;-83
2022/07/09 13:43:34;;;;;;;1.80;0.30;;;32.60;52.10;;;;;;5008806;28;20041;-82
2022/07/09 13:46:00;;;;;;;1.10;0.30;;;31.90;53.00;;;;;;4969201;28;20048;-81
2022/07/09 13:48:27;;;;;;;1.70;0.32;;;32.20;53.00;;;;;;5003202;28;20042;-81
2022/07/09 13:50:54;;;;;;;1.45;0.30;;;33.20;52.00;;;;;;5003408;28;20033;-84
2022/07/09 13:53:20;;;;;;;1.67;0.70;;;34.30;50.40;;;;;;5003644;28;20040;-84
2022/07/09 13:55:47;;;;;;;3.45;2.63;;;34.60;49.80;;;;;;5007701;28;20384;-84
2022/07/09 13:58:13;;;;;;;2.35;1.20;;;33.90;49.80;;;;;;5005753;28;20026;-82
2022/07/09 14:00:40;;;;;;;2.58;0.60;;;33.70;49.50;;;;;;4969410;28;20064;-83
2022/07/09 14:03:06;;;;;;;2.55;0.30;;;33.20;49.50;;;;;;5005209;28;20033;-84
2022/07/09 14:05:33;;;;;;;1.73;0.35;;;32.90;50.10;;;;;;5005913;28;20757;-82